sensor_id;sensor_type;location;lat;lon;timestamp;pressure;altitude;pressure_sealevel;temperature;humidity
39891;BME280;25564;53.312;9.790;2022-07-29T00:00:48;101336.13;;;13.99;64.71
39891;BME280;25564;53.312;9.790;2022-07-29T00:03:20;101327.38;;;13.92;65.14
39891;BME280;25564;53.312;9.790;2022-07-29T00:05:52;101323.84;;;13.92;64.86
39891;BME280;25564;53.312;9.790;2022-07-29T00:08:24;101327.34;;;13.94;65.16
39891;BME280;25564;53.312;9.790;2022-07-29T00:10:55;101327.34;;;13.94;65.03
39891;BME280;25564;53.312;9.790;2022-07-29T00:13:27;101326.50;;;13.92;65.16
39891;BME280;25564;53.312;9.790;2022-07-29T00:16:03;101323.88;;;13.90;65.06
39891;BME280;25564;53.312;9.790;2022-07-29T00:18:35;101315.03;;;13.87;65.18
39891;BME280;25564;53.312;9.790;2022-07-29T00:21:07;101325.66;;;13.90;65.20
39891;BME280;25564;53.312;9.790;2022-07-29T00:23:38;101303.50;;;13.86;64.98
39891;BME280;25564;53.312;9.790;2022-07-29T00:26:09;101316.75;;;13.91;65.01
39891;BME280;25564;53.312;9.790;2022-07-29T00:28:41;101318.50;;;13.92;64.92
39891;BME280;25564;53.312;9.790;2022-07-29T00:31:12;101296.44;;;13.84;64.97
39891;BME280;25564;53.312;9.790;2022-07-29T00:33:44;101313.16;;;13.92;65.00
39891;BME280;25564;53.312;9.790;2022-07-29T00:36:15;101308.69;;;13.92;64.88
39891;BME280;25564;53.312;9.790;2022-07-29T00:38:48;101298.09;;;13.89;64.84
39891;BME280;25564;53.312;9.790;2022-07-29T00:41:19;101297.16;;;13.92;64.92
39891;BME280;25564;53.312;9.790;2022-07-29T00:43:51;101300.72;;;13.91;64.77
39891;BME280;25564;53.312;9.790;2022-07-29T00:46:22;101312.19;;;13.96;65.09
39891;BME280;25564;53.312;9.790;2022-07-29T00:48:54;101302.38;;;13.96;64.88
39891;BME280;25564;53.312;9.790;2022-07-29T00:51:26;101297.94;;;13.97;64.89
39891;BME280;25564;53.312;9.790;2022-07-29T00:53:58;101287.38;;;13.91;65.15
39891;BME280;25564;53.312;9.790;2022-07-29T00:56:30;101276.75;;;13.89;65.03
39891;BME280;25564;53.312;9.790;2022-07-29T00:59:02;101289.91;;;13.97;64.77
39891;BME280;25564;53.312;9.790;2022-07-29T01:01:33;101286.34;;;13.98;64.85
39891;BME280;25564;53.312;9.790;2022-07-29T01:04:05;101258.09;;;13.88;64.96
39891;BME280;25564;53.312;9.790;2022-07-29T01:06:37;101280.06;;;14.00;64.93
39891;BME280;25564;53.312;9.790;2022-07-29T01:09:09;101277.34;;;14.02;64.94
39891;BME280;25564;53.312;9.790;2022-07-29T01:11:41;101276.44;;;14.03;64.81
39891;BME280;25564;53.312;9.790;2022-07-29T01:14:14;101265.75;;;14.03;64.83
39891;BME280;25564;53.312;9.790;2022-07-29T01:17:32;101270.16;;;14.05;64.76
39891;BME280;25564;53.312;9.790;2022-07-29T01:22:52;101270.13;;;14.07;64.72
39891;BME280;25564;53.312;9.790;2022-07-29T01:28:39;101260.31;;;14.07;64.46
39891;BME280;25564;53.312;9.790;2022-07-29T01:31:13;101257.63;;;14.09;64.34
39891;BME280;25564;53.312;9.790;2022-07-29T01:33:58;101257.69;;;14.06;64.67
39891;BME280;25564;53.312;9.790;2022-07-29T01:36:41;101245.25;;;14.05;64.31
39891;BME280;25564;53.312;9.790;2022-07-29T01:39:19;101256.81;;;14.05;64.33
39891;BME280;25564;53.312;9.790;2022-07-29T01:42:02;101255.94;;;14.05;64.12
39891;BME280;25564;53.312;9.790;2022-07-29T01:44:41;101252.34;;;14.06;64.47
39891;BME280;25564;53.312;9.790;2022-07-29T01:47:20;101247.88;;;14.06;64.42
39891;BME280;25564;53.312;9.790;2022-07-29T01:49:56;101247.88;;;14.06;64.46
39891;BME280;25564;53.312;9.790;2022-07-29T01:52:43;101239.84;;;14.08;64.53
39891;BME280;25564;53.312;9.790;2022-07-29T01:55:16;101248.69;;;14.10;64.78
39891;BME280;25564;53.312;9.790;2022-07-29T01:57:50;101240.84;;;14.04;64.83
39891;BME280;25564;53.312;9.790;2022-07-29T02:00:22;101242.53;;;14.08;64.56
39891;BME280;25564;53.312;9.790;2022-07-29T02:02:55;101240.75;;;14.07;64.79
39891;BME280;25564;53.312;9.790;2022-07-29T02:05:29;101232.69;;;14.10;64.70
39891;BME280;25564;53.312;9.790;2022-07-29T02:08:02;101235.34;;;14.10;64.90
39891;BME280;25564;53.312;9.790;2022-07-29T02:10:34;101237.06;;;14.13;64.61
39891;BME280;25564;53.312;9.790;2022-07-29T02:13:07;101238.78;;;14.15;64.85
39891;BME280;25564;53.312;9.790;2022-07-29T02:15:41;101227.22;;;14.15;64.95
39891;BME280;25564;53.312;9.790;2022-07-29T02:18:17;101225.41;;;14.17;64.68
39891;BME280;25564;53.312;9.790;2022-07-29T02:20:50;101227.13;;;14.19;64.96
39891;BME280;25564;53.312;9.790;2022-07-29T02:23:23;101220.94;;;14.17;64.79
39891;BME280;25564;53.312;9.790;2022-07-29T02:25:57;101225.38;;;14.18;64.81
39891;BME280;25564;53.312;9.790;2022-07-29T02:28:30;101217.41;;;14.17;64.89
39891;BME280;25564;53.312;9.790;2022-07-29T02:31:03;101218.25;;;14.19;64.84
39891;BME280;25564;53.312;9.790;2022-07-29T02:33:35;101210.31;;;14.16;64.83
39891;BME280;25564;53.312;9.790;2022-07-29T02:36:08;101218.19;;;14.20;65.01
39891;BME280;25564;53.312;9.790;2022-07-29T02:38:41;101207.66;;;14.14;64.59
39891;BME280;25564;53.312;9.790;2022-07-29T02:41:27;101205.84;;;14.16;65.00
39891;BME280;25564;53.312;9.790;2022-07-29T02:44:08;101211.25;;;14.13;65.11
39891;BME280;25564;53.312;9.790;2022-07-29T02:47:08;101213.88;;;14.15;65.15
39891;BME280;25564;53.312;9.790;2022-07-29T02:49:57;101214.88;;;14.11;65.22
39891;BME280;25564;53.312;9.790;2022-07-29T02:52:36;101211.38;;;14.08;65.06
39891;BME280;25564;53.312;9.790;2022-07-29T02:55:23;101207.84;;;14.06;65.34
39891;BME280;25564;53.312;9.790;2022-07-29T02:58:02;101207.06;;;14.03;65.21
39891;BME280;25564;53.312;9.790;2022-07-29T03:00:37;101210.66;;;14.00;65.25
39891;BME280;25564;53.312;9.790;2022-07-29T03:03:11;101201.03;;;13.95;65.65
39891;BME280;25564;53.312;9.790;2022-07-29T03:05:43;101190.47;;;13.90;65.41
39891;BME280;25564;53.312;9.790;2022-07-29T03:08:14;101196.66;;;13.91;65.78
39891;BME280;25564;53.312;9.790;2022-07-29T03:10:47;101193.19;;;13.87;65.82
39891;BME280;25564;53.312;9.790;2022-07-29T03:13:20;101189.78;;;13.81;65.99
39891;BME280;25564;53.312;9.790;2022-07-29T03:15:52;101193.31;;;13.83;66.07
39891;BME280;25564;53.312;9.790;2022-07-29T03:18:24;101184.44;;;13.82;66.21
39891;BME280;25564;53.312;9.790;2022-07-29T03:20:57;101194.22;;;13.82;66.01
39891;BME280;25564;53.312;9.790;2022-07-29T03:23:28;101192.47;;;13.81;66.17
39891;BME280;25564;53.312;9.790;2022-07-29T03:26:05;101186.34;;;13.75;66.41
39891;BME280;25564;53.312;9.790;2022-07-29T03:28:36;101183.69;;;13.75;66.43
39891;BME280;25564;53.312;9.790;2022-07-29T03:31:09;101196.03;;;13.80;66.51
39891;BME280;25564;53.312;9.790;2022-07-29T03:33:42;101194.22;;;13.82;66.50
39891;BME280;25564;53.312;9.790;2022-07-29T03:36:14;101185.44;;;13.77;66.53
39891;BME280;25564;53.312;9.790;2022-07-29T03:38:46;101192.31;;;13.87;66.71
39891;BME280;25564;53.312;9.790;2022-07-29T03:41:19;101196.72;;;13.89;66.72
39891;BME280;25564;53.312;9.790;2022-07-29T03:43:53;101187.81;;;13.89;66.73
39891;BME280;25564;53.312;9.790;2022-07-29T03:46:26;101190.34;;;13.95;66.76
39891;BME280;25564;53.312;9.790;2022-07-29T03:49:01;101172.59;;;13.94;66.98
39891;BME280;25564;53.312;9.790;2022-07-29T03:51:34;101185.94;;;13.94;66.95
39891;BME280;25564;53.312;9.790;2022-07-29T03:54:06;101179.59;;;13.98;66.75
39891;BME280;25564;53.312;9.790;2022-07-29T03:56:46;101189.25;;;14.03;66.76
39891;BME280;25564;53.312;9.790;2022-07-29T03:59:18;101189.19;;;14.06;66.84
39891;BME280;25564;53.312;9.790;2022-07-29T04:01:52;101180.34;;;14.04;67.01
39891;BME280;25564;53.312;9.790;2022-07-29T04:04:25;101189.03;;;14.13;66.78
39891;BME280;25564;53.312;9.790;2022-07-29T04:06:57;101198.75;;;14.15;66.85
39891;BME280;25564;53.312;9.790;2022-07-29T04:09:29;101196.91;;;14.17;66.83
39891;BME280;25564;53.312;9.790;2022-07-29T04:12:00;101191.50;;;14.20;67.04
39891;BME280;25564;53.312;9.790;2022-07-29T04:14:35;101187.97;;;14.20;66.68
39891;BME280;25564;53.312;9.790;2022-07-29T04:17:06;101194.94;;;14.25;66.81
39891;BME280;25564;53.312;9.790;2022-07-29T04:19:37;101195.75;;;14.29;66.83
39891;BME280;25564;53.312;9.790;2022-07-29T04:22:09;101188.56;;;14.31;66.76
39891;BME280;25564;53.312;9.790;2022-07-29T04:24:40;101194.72;;;14.34;66.97
39891;BME280;25564;53.312;9.790;2022-07-29T04:27:14;101199.06;;;14.38;66.73
39891;BME280;25564;53.312;9.790;2022-07-29T04:29:46;101203.44;;;14.43;66.99
39891;BME280;25564;53.312;9.790;2022-07-29T04:32:27;101192.69;;;14.46;66.70
39891;BME280;25564;53.312;9.790;2022-07-29T04:34:59;101197.84;;;14.52;66.95
39891;BME280;25564;53.312;9.790;2022-07-29T04:37:30;101187.13;;;14.53;66.85
39891;BME280;25564;53.312;9.790;2022-07-29T04:40:02;101195.78;;;14.61;66.72
39891;BME280;25564;53.312;9.790;2022-07-29T04:42:33;101191.16;;;14.68;66.58
39891;BME280;25564;53.312;9.790;2022-07-29T04:45:15;101199.06;;;14.72;66.39
39891;BME280;25564;53.312;9.790;2022-07-29T04:47:52;101197.19;;;14.76;66.56
39891;BME280;25564;53.312;9.790;2022-07-29T04:50:24;101204.91;;;14.87;66.45
39891;BME280;25564;53.312;9.790;2022-07-29T04:52:55;101194.91;;;14.93;66.15
39891;BME280;25564;53.312;9.790;2022-07-29T04:55:26;101203.69;;;14.98;66.38
39891;BME280;25564;53.312;9.790;2022-07-29T04:57:58;101199.00;;;15.07;66.06
39891;BME280;25564;53.312;9.790;2022-07-29T05:00:31;101203.22;;;15.15;65.95
39891;BME280;25564;53.312;9.790;2022-07-29T05:03:03;101200.44;;;15.18;66.32
39891;BME280;25564;53.312;9.790;2022-07-29T05:05:35;101208.16;;;15.29;65.64
39891;BME280;25564;53.312;9.790;2022-07-29T05:08:06;101203.50;;;15.35;65.64
39891;BME280;25564;53.312;9.790;2022-07-29T05:10:38;101204.25;;;15.41;65.54
39891;BME280;25564;53.312;9.790;2022-07-29T05:13:09;101202.41;;;15.43;65.66
39891;BME280;25564;53.312;9.790;2022-07-29T05:15:40;101211.88;;;15.54;65.18
39891;BME280;25564;53.312;9.790;2022-07-29T05:18:12;101220.50;;;15.64;64.97
39891;BME280;25564;53.312;9.790;2022-07-29T05:20:43;101208.69;;;15.71;65.13
39891;BME280;25564;53.312;9.790;2022-07-29T05:23:15;101211.16;;;15.77;64.98
39891;BME280;25564;53.312;9.790;2022-07-29T05:25:46;101206.56;;;15.82;64.81
39891;BME280;25564;53.312;9.790;2022-07-29T05:28:18;101208.22;;;15.86;64.81
39891;BME280;25564;53.312;9.790;2022-07-29T05:30:49;101199.09;;;15.92;64.59
39891;BME280;25564;53.312;9.790;2022-07-29T05:33:21;101210.34;;;16.03;64.64
39891;BME280;25564;53.312;9.790;2022-07-29T05:36:07;101196.03;;;16.04;64.33
39891;BME280;25564;53.312;9.790;2022-07-29T05:38:38;101208.31;;;16.11;64.25
39891;BME280;25564;53.312;9.790;2022-07-29T05:41:10;101202.75;;;16.17;64.45
39891;BME280;25564;53.312;9.790;2022-07-29T05:43:41;101215.00;;;16.24;64.00
39891;BME280;25564;53.312;9.790;2022-07-29T05:46:13;101212.22;;;16.27;64.14
39891;BME280;25564;53.312;9.790;2022-07-29T05:48:45;101194.50;;;16.23;63.92
39891;BME280;25564;53.312;9.790;2022-07-29T05:51:16;101204.09;;;16.30;64.18
39891;BME280;25564;53.312;9.790;2022-07-29T05:53:48;101194.22;;;16.32;63.73
39891;BME280;25564;53.312;9.790;2022-07-29T05:56:19;101213.53;;;16.42;63.60
39891;BME280;25564;53.312;9.790;2022-07-29T05:58:51;101208.00;;;16.47;63.72
39891;BME280;25564;53.312;9.790;2022-07-29T06:01:23;101212.28;;;16.52;63.86
39891;BME280;25564;53.312;9.790;2022-07-29T06:03:54;101196.97;;;16.56;63.72
39891;BME280;25564;53.312;9.790;2022-07-29T06:06:26;101212.63;;;16.68;63.68
39891;BME280;25564;53.312;9.790;2022-07-29T06:08:57;101218.50;;;16.79;63.32
39891;BME280;25564;53.312;9.790;2022-07-29T06:11:29;101204.06;;;16.83;63.13
39891;BME280;25564;53.312;9.790;2022-07-29T06:14:00;101213.53;;;16.93;62.71
39891;BME280;25564;53.312;9.790;2022-07-29T06:16:33;101211.56;;;16.98;62.73
39891;BME280;25564;53.312;9.790;2022-07-29T06:19:05;101209.63;;;17.02;62.64
39891;BME280;25564;53.312;9.790;2022-07-29T06:21:41;101203.78;;;17.16;62.61
39891;BME280;25564;53.312;9.790;2022-07-29T06:24:14;101199.97;;;17.21;62.43
39891;BME280;25564;53.312;9.790;2022-07-29T06:26:46;101213.94;;;17.31;62.08
39891;BME280;25564;53.312;9.790;2022-07-29T06:29:17;101206.69;;;17.33;62.10
39891;BME280;25564;53.312;9.790;2022-07-29T06:31:49;101212.88;;;17.35;62.16
39891;BME280;25564;53.312;9.790;2022-07-29T06:34:20;101209.97;;;17.41;61.95
39891;BME280;25564;53.312;9.790;2022-07-29T06:36:52;101209.75;;;17.47;62.01
39891;BME280;25564;53.312;9.790;2022-07-29T06:39:24;101213.88;;;17.56;61.85
39891;BME280;25564;53.312;9.790;2022-07-29T06:41:55;101214.47;;;17.64;61.77
39891;BME280;25564;53.312;9.790;2022-07-29T06:44:27;101207.03;;;17.71;61.59
39891;BME280;25564;53.312;9.790;2022-07-29T06:46:58;101216.50;;;17.81;61.34
39891;BME280;25564;53.312;9.790;2022-07-29T06:49:29;101201.75;;;17.91;61.44
39891;BME280;25564;53.312;9.790;2022-07-29T06:52:01;101211.69;;;18.11;61.31
39891;BME280;25564;53.312;9.790;2022-07-29T06:54:33;101201.31;;;18.23;61.01
39891;BME280;25564;53.312;9.790;2022-07-29T06:57:04;101214.13;;;18.39;60.08
39891;BME280;25564;53.312;9.790;2022-07-29T06:59:35;101213.66;;;18.49;60.21
39891;BME280;25564;53.312;9.790;2022-07-29T07:02:07;101214.16;;;18.59;60.08
39891;BME280;25564;53.312;9.790;2022-07-29T07:04:38;101211.75;;;18.73;60.08
39891;BME280;25564;53.312;9.790;2022-07-29T07:07:10;101212.81;;;18.89;59.82
39891;BME280;25564;53.312;9.790;2022-07-29T07:09:41;101214.91;;;19.03;59.20
39891;BME280;25564;53.312;9.790;2022-07-29T07:12:12;101208.53;;;19.06;59.09
39891;BME280;25564;53.312;9.790;2022-07-29T07:14:44;101214.63;;;19.09;58.80
39891;BME280;25564;53.312;9.790;2022-07-29T07:17:15;101204.59;;;19.13;58.43
39891;BME280;25564;53.312;9.790;2022-07-29T07:19:47;101203.53;;;19.17;58.04
39891;BME280;25564;53.312;9.790;2022-07-29T07:22:18;101201.50;;;19.22;58.46
39891;BME280;25564;53.312;9.790;2022-07-29T07:24:50;101189.59;;;19.27;58.47
39891;BME280;25564;53.312;9.790;2022-07-29T07:27:21;101196.94;;;19.43;57.98
39891;BME280;25564;53.312;9.790;2022-07-29T07:29:53;101192.84;;;19.54;57.80
39891;BME280;25564;53.312;9.790;2022-07-29T07:32:24;101191.75;;;19.58;58.04
39891;BME280;25564;53.312;9.790;2022-07-29T07:34:55;101198.44;;;19.69;57.61
39891;BME280;25564;53.312;9.790;2022-07-29T07:37:28;101191.56;;;19.80;57.35
39891;BME280;25564;53.312;9.790;2022-07-29T07:39:59;101191.19;;;19.88;57.13
39891;BME280;25564;53.312;9.790;2022-07-29T07:42:31;101194.09;;;20.02;56.53
39891;BME280;25564;53.312;9.790;2022-07-29T07:45:03;101182.06;;;20.09;56.72
39891;BME280;25564;53.312;9.790;2022-07-29T07:47:46;101187.97;;;20.17;56.59
39891;BME280;25564;53.312;9.790;2022-07-29T07:50:17;101184.56;;;20.31;56.78
39891;BME280;25564;53.312;9.790;2022-07-29T07:52:52;101177.63;;;20.44;56.04
39891;BME280;25564;53.312;9.790;2022-07-29T07:55:25;101185.19;;;20.55;56.05
39891;BME280;25564;53.312;9.790;2022-07-29T07:57:57;101190.97;;;20.65;55.75
39891;BME280;25564;53.312;9.790;2022-07-29T08:00:28;101192.94;;;20.78;55.74
39891;BME280;25564;53.312;9.790;2022-07-29T08:03:00;101206.09;;;20.84;54.86
39891;BME280;25564;53.312;9.790;2022-07-29T08:05:31;101206.88;;;20.86;54.61
39891;BME280;25564;53.312;9.790;2022-07-29T08:08:04;101194.34;;;20.85;54.56
39891;BME280;25564;53.312;9.790;2022-07-29T08:10:35;101193.16;;;20.91;54.22
39891;BME280;25564;53.312;9.790;2022-07-29T08:13:27;101189.97;;;21.00;54.84
39891;BME280;25564;53.312;9.790;2022-07-29T08:15:59;101202.47;;;21.18;54.33
39891;BME280;25564;53.312;9.790;2022-07-29T08:18:32;101195.06;;;21.39;54.18
39891;BME280;25564;53.312;9.790;2022-07-29T08:21:04;101192.66;;;21.50;53.70
39891;BME280;25564;53.312;9.790;2022-07-29T08:23:35;101201.72;;;21.65;53.71
39891;BME280;25564;53.312;9.790;2022-07-29T08:26:19;101201.53;;;21.84;53.45
39891;BME280;25564;53.312;9.790;2022-07-29T08:28:53;101188.13;;;21.98;53.21
39891;BME280;25564;53.312;9.790;2022-07-29T08:31:25;101197.91;;;22.16;52.54
39891;BME280;25564;53.312;9.790;2022-07-29T08:33:56;101197.78;;;22.34;52.59
39891;BME280;25564;53.312;9.790;2022-07-29T08:36:31;101205.00;;;22.49;52.14
39891;BME280;25564;53.312;9.790;2022-07-29T08:39:04;101209.78;;;22.60;51.79
39891;BME280;25564;53.312;9.790;2022-07-29T08:41:35;101211.16;;;22.67;51.61
39891;BME280;25564;53.312;9.790;2022-07-29T08:44:07;101202.84;;;22.70;51.28
39891;BME280;25564;53.312;9.790;2022-07-29T08:46:39;101214.03;;;22.79;51.22
39891;BME280;25564;53.312;9.790;2022-07-29T08:49:11;101212.44;;;22.75;50.90
39891;BME280;25564;53.312;9.790;2022-07-29T08:51:43;101206.34;;;22.72;51.03
39891;BME280;25564;53.312;9.790;2022-07-29T08:54:20;101198.91;;;22.75;51.01
39891;BME280;25564;53.312;9.790;2022-07-29T08:56:54;101201.69;;;22.74;50.79
39891;BME280;25564;53.312;9.790;2022-07-29T08:59:27;101204.88;;;22.66;50.68
39891;BME280;25564;53.312;9.790;2022-07-29T09:02:04;101198.03;;;22.75;50.78
39891;BME280;25564;53.312;9.790;2022-07-29T09:04:39;101203.38;;;22.91;50.80
39891;BME280;25564;53.312;9.790;2022-07-29T09:07:14;101199.06;;;23.02;50.47
39891;BME280;25564;53.312;9.790;2022-07-29T09:09:46;101203.72;;;23.14;50.37
39891;BME280;25564;53.312;9.790;2022-07-29T09:12:18;101193.06;;;23.11;49.43
39891;BME280;25564;53.312;9.790;2022-07-29T09:15:00;101196.84;;;23.23;49.90
39891;BME280;25564;53.312;9.790;2022-07-29T09:17:42;101199.38;;;23.40;49.47
39891;BME280;25564;53.312;9.790;2022-07-29T09:20:18;101186.81;;;23.54;49.39
39891;BME280;25564;53.312;9.790;2022-07-29T09:22:52;101189.22;;;23.72;48.95
39891;BME280;25564;53.312;9.790;2022-07-29T09:25:57;101210.25;;;23.96;48.47
39891;BME280;25564;53.312;9.790;2022-07-29T09:28:41;101200.19;;;24.25;48.07
39891;BME280;25564;53.312;9.790;2022-07-29T09:31:13;101198.25;;;24.54;48.37
39891;BME280;25564;53.312;9.790;2022-07-29T09:33:44;101199.59;;;24.73;47.38
39891;BME280;25564;53.312;9.790;2022-07-29T09:36:16;101199.50;;;24.88;46.51
39891;BME280;25564;53.312;9.790;2022-07-29T09:38:57;101192.03;;;25.04;46.49
39891;BME280;25564;53.312;9.790;2022-07-29T09:41:47;101205.94;;;25.12;45.83
39891;BME280;25564;53.312;9.790;2022-07-29T09:44:20;101193.09;;;24.89;46.34
39891;BME280;25564;53.312;9.790;2022-07-29T09:46:55;101195.91;;;24.74;45.95
39891;BME280;25564;53.312;9.790;2022-07-29T09:49:27;101191.56;;;24.72;46.26
39891;BME280;25564;53.312;9.790;2022-07-29T09:52:08;101188.75;;;24.73;45.86
39891;BME280;25564;53.312;9.790;2022-07-29T09:54:40;101197.84;;;24.72;45.88
39891;BME280;25564;53.312;9.790;2022-07-29T09:57:28;101189.28;;;24.78;46.03
39891;BME280;25564;53.312;9.790;2022-07-29T10:00:19;101187.00;;;24.72;45.92
39891;BME280;25564;53.312;9.790;2022-07-29T10:02:59;101184.94;;;24.76;46.36
39891;BME280;25564;53.312;9.790;2022-07-29T10:05:32;101196.25;;;24.83;45.85
39891;BME280;25564;53.312;9.790;2022-07-29T10:08:07;101197.00;;;24.85;46.19
39891;BME280;25564;53.312;9.790;2022-07-29T10:10:41;101185.94;;;24.88;45.85
39891;BME280;25564;53.312;9.790;2022-07-29T10:13:14;101186.59;;;24.91;45.68
39891;BME280;25564;53.312;9.790;2022-07-29T10:15:46;101188.53;;;24.89;45.34
39891;BME280;25564;53.312;9.790;2022-07-29T10:18:22;101188.31;;;24.80;45.52
39891;BME280;25564;53.312;9.790;2022-07-29T10:20:54;101175.81;;;24.64;45.24
39891;BME280;25564;53.312;9.790;2022-07-29T10:23:25;101179.94;;;24.70;45.73
39891;BME280;25564;53.312;9.790;2022-07-29T10:25:57;101181.69;;;24.71;45.29
39891;BME280;25564;53.312;9.790;2022-07-29T10:28:30;101178.09;;;24.70;45.34
39891;BME280;25564;53.312;9.790;2022-07-29T10:31:05;101165.81;;;24.65;44.92
39891;BME280;25564;53.312;9.790;2022-07-29T10:34:12;101164.19;;;24.62;45.40
39891;BME280;25564;53.312;9.790;2022-07-29T10:37:18;101171.47;;;24.74;44.95
39891;BME280;25564;53.312;9.790;2022-07-29T10:39:56;101173.22;;;24.88;45.07
39891;BME280;25564;53.312;9.790;2022-07-29T10:42:39;101164.34;;;25.12;45.32
39891;BME280;25564;53.312;9.790;2022-07-29T10:45:11;101162.16;;;25.29;44.68
39891;BME280;25564;53.312;9.790;2022-07-29T10:47:43;101157.84;;;25.63;44.66
39891;BME280;25564;53.312;9.790;2022-07-29T10:50:16;101155.09;;;25.89;44.16
39891;BME280;25564;53.312;9.790;2022-07-29T10:55:32;101157.72;;;26.01;42.62
39891;BME280;25564;53.312;9.790;2022-07-29T10:58:17;101154.03;;;26.02;42.19
39891;BME280;25564;53.312;9.790;2022-07-29T11:00:53;101145.75;;;26.04;41.93
39891;BME280;25564;53.312;9.790;2022-07-29T11:03:47;101143.31;;;26.12;42.15
39891;BME280;25564;53.312;9.790;2022-07-29T11:06:23;101153.50;;;26.21;42.33
39891;BME280;25564;53.312;9.790;2022-07-29T11:09:18;101153.63;;;26.20;41.79
39891;BME280;25564;53.312;9.790;2022-07-29T11:15:11;101145.50;;;26.55;41.80
39891;BME280;25564;53.312;9.790;2022-07-29T11:23:24;101123.34;;;26.48;40.72
39891;BME280;25564;53.312;9.790;2022-07-29T11:28:59;101139.00;;;26.80;40.94
39891;BME280;25564;53.312;9.790;2022-07-29T11:31:35;101139.63;;;26.83;40.87
39891;BME280;25564;53.312;9.790;2022-07-29T11:34:21;101135.53;;;26.78;40.73
39891;BME280;25564;53.312;9.790;2022-07-29T11:39:44;101141.97;;;26.77;40.49
39891;BME280;25564;53.312;9.790;2022-07-29T11:45:14;101125.31;;;27.15;39.42
39891;BME280;25564;53.312;9.790;2022-07-29T11:48:07;101127.66;;;27.30;39.73
39891;BME280;25564;53.312;9.790;2022-07-29T11:50:59;101126.56;;;27.33;39.32
39891;BME280;25564;53.312;9.790;2022-07-29T11:53:30;101120.22;;;27.44;38.76
39891;BME280;25564;53.312;9.790;2022-07-29T11:56:03;101123.06;;;27.53;39.05
39891;BME280;25564;53.312;9.790;2022-07-29T11:58:36;101106.31;;;27.58;38.21
39891;BME280;25564;53.312;9.790;2022-07-29T12:01:13;101114.28;;;27.50;37.74
39891;BME280;25564;53.312;9.790;2022-07-29T12:03:44;101110.91;;;27.57;37.97
39891;BME280;25564;53.312;9.790;2022-07-29T12:06:16;101114.78;;;27.66;37.08
39891;BME280;25564;53.312;9.790;2022-07-29T12:09:08;101109.56;;;27.52;36.62
39891;BME280;25564;53.312;9.790;2022-07-29T12:11:45;101099.66;;;27.40;36.53
39891;BME280;25564;53.312;9.790;2022-07-29T12:14:31;101105.63;;;27.33;36.56
39891;BME280;25564;53.312;9.790;2022-07-29T12:17:04;101106.59;;;27.32;36.72
39891;BME280;25564;53.312;9.790;2022-07-29T12:19:43;101101.03;;;27.34;36.26
39891;BME280;25564;53.312;9.790;2022-07-29T12:22:24;101107.59;;;27.31;36.65
39891;BME280;25564;53.312;9.790;2022-07-29T12:25:01;101113.91;;;27.32;36.45
39891;BME280;25564;53.312;9.790;2022-07-29T12:28:01;101101.91;;;27.23;36.50
39891;BME280;25564;53.312;9.790;2022-07-29T12:30:40;101105.38;;;27.14;36.72
39891;BME280;25564;53.312;9.790;2022-07-29T12:36:02;101102.13;;;26.87;36.76
39891;BME280;25564;53.312;9.790;2022-07-29T12:38:42;101102.75;;;26.79;36.68
39891;BME280;25564;53.312;9.790;2022-07-29T12:41:13;101107.44;;;26.77;37.00
39891;BME280;25564;53.312;9.790;2022-07-29T12:43:53;101100.88;;;26.80;36.85
39891;BME280;25564;53.312;9.790;2022-07-29T12:46:24;101096.81;;;26.85;36.58
39891;BME280;25564;53.312;9.790;2022-07-29T12:48:56;101105.59;;;26.89;36.38
39891;BME280;25564;53.312;9.790;2022-07-29T12:51:33;101098.66;;;26.96;36.68
39891;BME280;25564;53.312;9.790;2022-07-29T12:54:14;101098.31;;;27.12;36.58
39891;BME280;25564;53.312;9.790;2022-07-29T12:56:46;101109.44;;;27.31;36.68
39891;BME280;25564;53.312;9.790;2022-07-29T12:59:19;101092.84;;;27.45;36.52
39891;BME280;25564;53.312;9.790;2022-07-29T13:01:51;101096.44;;;27.68;35.95
39891;BME280;25564;53.312;9.790;2022-07-29T13:04:25;101098.84;;;27.93;36.24
39891;BME280;25564;53.312;9.790;2022-07-29T13:07:02;101096.44;;;28.32;35.35
39891;BME280;25564;53.312;9.790;2022-07-29T13:09:41;101093.78;;;28.62;34.41
39891;BME280;25564;53.312;9.790;2022-07-29T13:12:14;101086.13;;;28.98;33.91
39891;BME280;25564;53.312;9.790;2022-07-29T13:14:47;101082.16;;;29.21;33.78
39891;BME280;25564;53.312;9.790;2022-07-29T13:17:21;101075.50;;;29.45;32.61
39891;BME280;25564;53.312;9.790;2022-07-29T13:20:08;101072.22;;;29.51;32.48
39891;BME280;25564;53.312;9.790;2022-07-29T13:22:47;101074.53;;;29.55;32.33
39891;BME280;25564;53.312;9.790;2022-07-29T13:25:29;101079.16;;;29.65;33.24
39891;BME280;25564;53.312;9.790;2022-07-29T13:28:01;101073.25;;;29.69;32.72
39891;BME280;25564;53.312;9.790;2022-07-29T13:30:33;101072.53;;;29.67;31.50
39891;BME280;25564;53.312;9.790;2022-07-29T13:33:04;101062.59;;;29.66;31.39
39891;BME280;25564;53.312;9.790;2022-07-29T13:35:36;101057.13;;;29.66;32.07
39891;BME280;25564;53.312;9.790;2022-07-29T13:38:10;101066.19;;;29.67;32.39
39891;BME280;25564;53.312;9.790;2022-07-29T13:40:41;101069.50;;;29.70;31.54
39891;BME280;25564;53.312;9.790;2022-07-29T13:43:13;101063.91;;;29.81;31.98
39891;BME280;25564;53.312;9.790;2022-07-29T13:45:44;101062.78;;;29.93;30.94
39891;BME280;25564;53.312;9.790;2022-07-29T13:48:15;101071.41;;;29.89;30.61
39891;BME280;25564;53.312;9.790;2022-07-29T13:50:47;101057.28;;;29.74;30.04
39891;BME280;25564;53.312;9.790;2022-07-29T13:53:19;101059.00;;;29.66;31.09
39891;BME280;25564;53.312;9.790;2022-07-29T13:55:57;101045.75;;;29.61;30.67
39891;BME280;25564;53.312;9.790;2022-07-29T13:58:28;101056.06;;;29.48;30.88